TAF PHNY
PHNY 072341Z 0800/0824 VRB06KT P6SM SCT030 BKN050 FM082100 26008KT P6SM BKN025=
METAR PHNY
WC PHNY
WS PHNY
WV PHNY